createdAt,value
2017-10-12T00:01:37.680Z,5.07
2017-10-12T00:04:05.675Z,4.77
2017-10-12T00:06:33.355Z,6.03
2017-10-12T00:09:01.017Z,4.60
2017-10-12T00:11:28.703Z,5.43
2017-10-12T00:13:56.414Z,5.57
2017-10-12T00:16:24.053Z,6.73
2017-10-12T00:18:51.776Z,5.90
2017-10-12T00:21:19.413Z,7.00
2017-10-12T00:23:47.047Z,8.07
2017-10-12T00:26:14.705Z,7.60
2017-10-12T00:28:42.312Z,8.47
2017-10-12T00:31:10.326Z,6.00
2017-10-12T00:33:38.063Z,9.80
2017-10-12T00:36:07.176Z,4.67
2017-10-12T00:38:35.542Z,5.93
2017-10-12T00:41:03.247Z,6.13
2017-10-12T00:43:30.888Z,4.83
2017-10-12T00:45:58.520Z,6.57
2017-10-12T00:48:26.184Z,16.20
2017-10-12T00:50:53.803Z,8.73
2017-10-12T00:53:21.460Z,6.83
2017-10-12T00:55:49.151Z,9.57
2017-10-12T00:58:16.832Z,8.20
2017-10-12T01:00:44.505Z,6.80
2017-10-12T01:03:12.200Z,7.27
2017-10-12T01:05:39.853Z,5.80
2017-10-12T01:08:07.652Z,8.63
2017-10-12T01:10:35.372Z,8.80
2017-10-12T01:13:03.882Z,7.83
2017-10-12T01:15:31.547Z,9.30
2017-10-12T01:17:59.243Z,15.60
2017-10-12T01:20:26.865Z,8.33
2017-10-12T01:22:54.539Z,6.77
2017-10-12T01:25:22.369Z,6.70
2017-10-12T01:27:50.076Z,5.97
2017-10-12T01:30:17.752Z,5.03
2017-10-12T01:32:45.422Z,5.90
2017-10-12T01:35:13.261Z,5.93
2017-10-12T01:37:40.897Z,5.80
2017-10-12T01:40:09.400Z,7.30
2017-10-12T01:42:37.047Z,7.87
2017-10-12T01:45:05.515Z,7.57
2017-10-12T01:47:33.213Z,6.97
2017-10-12T01:50:00.859Z,5.70
2017-10-12T01:52:28.519Z,5.50
2017-10-12T01:54:56.564Z,5.27
2017-10-12T01:57:24.572Z,5.30
2017-10-12T01:59:53.000Z,5.33
2017-10-12T02:02:20.640Z,6.07
2017-10-12T02:04:50.552Z,6.10
2017-10-12T02:07:18.188Z,7.60
2017-10-12T02:09:45.871Z,7.20
2017-10-12T02:12:13.552Z,6.57
2017-10-12T02:14:41.178Z,5.67
2017-10-12T02:17:13.468Z,6.20
2017-10-12T02:19:42.562Z,6.30
2017-10-12T02:22:11.002Z,6.67
2017-10-12T02:24:39.249Z,5.90
2017-10-12T02:27:07.324Z,6.67
2017-10-12T02:29:34.982Z,6.00
2017-10-12T02:32:02.601Z,7.50
2017-10-12T02:34:30.223Z,7.53
2017-10-12T02:36:57.864Z,7.17
2017-10-12T02:39:26.112Z,7.30
2017-10-12T02:41:54.552Z,6.93
2017-10-12T02:44:22.997Z,7.80
2017-10-12T02:46:51.416Z,17.37
2017-10-12T02:49:19.075Z,18.07
2017-10-12T02:51:46.708Z,13.80
2017-10-12T02:54:14.352Z,9.67
2017-10-12T02:56:42.015Z,10.20
2017-10-12T02:59:09.797Z,9.87
2017-10-12T03:01:37.624Z,9.03
2017-10-12T03:04:05.314Z,8.27
2017-10-12T03:06:32.907Z,7.90
2017-10-12T03:09:00.577Z,7.60
2017-10-12T03:11:28.169Z,8.40
2017-10-12T03:13:55.779Z,9.00
2017-10-12T03:16:23.459Z,8.03
2017-10-12T03:18:51.087Z,9.63
2017-10-12T03:21:18.677Z,8.13
2017-10-12T03:23:46.366Z,8.40
2017-10-12T03:26:13.973Z,7.50
2017-10-12T03:28:41.598Z,6.60
2017-10-12T03:31:09.350Z,8.03
2017-10-12T03:33:37.910Z,10.77
2017-10-12T03:36:05.591Z,9.60
2017-10-12T03:38:33.993Z,9.17
2017-10-12T03:41:01.638Z,8.90
2017-10-12T03:43:29.283Z,9.77
2017-10-12T03:45:56.923Z,8.30
2017-10-12T03:48:24.534Z,8.40
2017-10-12T03:50:52.189Z,9.60
2017-10-12T03:53:20.756Z,9.43
2017-10-12T03:55:48.379Z,9.50
2017-10-12T03:58:16.103Z,10.83
2017-10-12T04:00:43.712Z,10.63
2017-10-12T04:03:11.825Z,9.83
2017-10-12T04:05:40.208Z,9.20
2017-10-12T04:08:08.717Z,9.17
2017-10-12T04:10:36.324Z,10.23
2017-10-12T04:13:03.929Z,9.77
2017-10-12T04:15:31.553Z,8.63
2017-10-12T04:17:59.255Z,9.77
2017-10-12T04:20:27.218Z,11.07
2017-10-12T04:22:55.634Z,10.10
2017-10-12T04:25:23.233Z,9.33
2017-10-12T04:27:50.840Z,8.43
2017-10-12T04:30:18.486Z,9.40
2017-10-12T04:32:46.084Z,10.50
2017-10-12T04:35:13.698Z,10.67
2017-10-12T04:37:41.320Z,9.40
2017-10-12T04:40:08.951Z,11.30
2017-10-12T04:42:36.555Z,17.40
2017-10-12T04:45:06.033Z,19.80
2017-10-12T04:47:34.431Z,19.37
2017-10-12T04:50:02.034Z,15.80
2017-10-12T04:52:30.431Z,14.73
2017-10-12T04:54:58.023Z,14.20
2017-10-12T04:57:25.624Z,16.00
2017-10-12T04:59:54.070Z,13.70
2017-10-12T05:02:22.030Z,12.40
2017-10-12T05:04:49.629Z,11.67
2017-10-12T05:07:18.046Z,12.90
2017-10-12T05:09:45.633Z,10.87
2017-10-12T05:12:13.214Z,11.57
2017-10-12T05:14:40.816Z,11.63
2017-10-12T05:17:08.519Z,11.70
2017-10-12T05:19:36.118Z,13.70
2017-10-12T05:22:03.759Z,13.23
2017-10-12T05:24:31.366Z,13.27
2017-10-12T05:26:59.019Z,14.40
2017-10-12T05:29:27.573Z,19.77
2017-10-12T05:31:55.215Z,19.30
2017-10-12T05:34:24.320Z,22.77
2017-10-12T05:36:51.930Z,24.70
2017-10-12T05:39:19.681Z,22.37
2017-10-12T05:41:47.328Z,39.23
2017-10-12T05:44:15.716Z,24.10
2017-10-12T05:46:44.091Z,14.87
2017-10-12T05:49:11.991Z,25.33
2017-10-12T05:51:39.603Z,50.20
2017-10-12T05:54:07.236Z,145.60
2017-10-12T05:56:34.871Z,106.53
2017-10-12T05:59:02.491Z,78.73
2017-10-12T06:01:30.113Z,40.00
2017-10-12T06:03:57.744Z,30.43
2017-10-12T06:06:25.342Z,20.70
2017-10-12T06:09:03.932Z,16.17
2017-10-12T06:11:31.552Z,12.40
2017-10-12T06:13:59.209Z,12.60
2017-10-12T06:16:26.851Z,10.50
2017-10-12T06:18:54.468Z,12.87
2017-10-12T06:21:23.086Z,10.40
2017-10-12T06:23:50.874Z,10.63
2017-10-12T06:26:19.336Z,10.07
2017-10-12T06:28:46.975Z,9.27
2017-10-12T06:31:14.998Z,9.17
2017-10-12T06:33:42.650Z,7.53
2017-10-12T06:36:12.109Z,6.53
2017-10-12T06:38:41.011Z,7.23
2017-10-12T06:41:08.664Z,6.33
2017-10-12T06:43:36.283Z,6.43
2017-10-12T06:46:03.939Z,5.57
2017-10-12T06:48:31.552Z,6.10
2017-10-12T06:50:59.222Z,7.07
2017-10-12T06:53:26.905Z,5.50
2017-10-12T06:55:54.505Z,4.70
2017-10-12T06:58:22.106Z,6.07
2017-10-12T07:00:50.995Z,5.13
2017-10-12T07:03:18.800Z,4.80
2017-10-12T07:05:46.441Z,4.93
2017-10-12T07:08:14.123Z,4.90
2017-10-12T07:10:41.742Z,4.83
2017-10-12T07:13:09.795Z,5.17
2017-10-12T07:15:38.403Z,5.17
2017-10-12T07:18:06.231Z,5.33
2017-10-12T07:20:33.842Z,5.27
2017-10-12T07:23:01.478Z,4.30
2017-10-12T07:25:30.544Z,4.70
2017-10-12T07:27:58.958Z,5.23
2017-10-12T07:30:26.616Z,4.77
2017-10-12T07:32:54.225Z,4.30
2017-10-12T07:35:21.830Z,4.47
2017-10-12T07:37:49.463Z,4.77
2017-10-12T07:40:17.180Z,4.03
2017-10-12T07:42:44.811Z,4.30
2017-10-12T07:45:12.618Z,4.40
2017-10-12T07:47:40.234Z,5.50
2017-10-12T07:50:07.811Z,4.43
2017-10-12T07:52:36.196Z,4.03
2017-10-12T07:55:03.786Z,3.53
2017-10-12T07:57:32.361Z,5.03
2017-10-12T08:00:00.008Z,4.77
2017-10-12T08:02:27.652Z,3.93
2017-10-12T08:04:55.279Z,4.60
2017-10-12T08:07:23.144Z,4.17
2017-10-12T08:09:50.892Z,3.13
2017-10-12T08:12:18.544Z,3.83
2017-10-12T08:14:46.321Z,4.03
2017-10-12T08:17:15.278Z,3.50
2017-10-12T08:19:43.772Z,3.93
2017-10-12T08:22:12.295Z,3.57
2017-10-12T08:24:40.422Z,3.83
2017-10-12T08:27:09.568Z,3.10
2017-10-12T08:29:37.353Z,4.30
2017-10-12T08:32:04.984Z,3.77
2017-10-12T08:34:32.795Z,2.83
2017-10-12T08:37:00.421Z,3.57
2017-10-12T08:39:28.044Z,3.30
2017-10-12T08:41:55.660Z,3.67
2017-10-12T08:44:23.391Z,3.10
2017-10-12T08:46:51.093Z,3.27
2017-10-12T08:49:18.862Z,3.80
2017-10-12T08:51:46.585Z,3.70
2017-10-12T08:54:15.172Z,3.40
2017-10-12T08:56:42.834Z,3.63
2017-10-12T08:59:10.530Z,4.00
2017-10-12T09:01:38.136Z,4.17
2017-10-12T09:04:05.754Z,3.87
2017-10-12T09:06:33.439Z,3.77
2017-10-12T09:09:01.105Z,3.77
2017-10-12T09:11:31.128Z,4.07
2017-10-12T09:13:58.795Z,3.43
2017-10-12T09:16:27.158Z,3.20
2017-10-12T09:18:55.590Z,3.77
2017-10-12T09:21:23.742Z,3.20
2017-10-12T09:23:52.223Z,3.40
2017-10-12T09:26:25.040Z,3.63
2017-10-12T09:28:52.667Z,3.40
2017-10-12T09:31:20.342Z,2.70
2017-10-12T09:33:48.024Z,3.23
2017-10-12T09:36:15.672Z,3.13
2017-10-12T09:38:43.321Z,2.33
2017-10-12T09:41:11.291Z,2.67
2017-10-12T09:43:38.926Z,2.40
2017-10-12T09:46:07.370Z,2.40
2017-10-12T09:48:35.828Z,2.00
2017-10-12T09:51:03.486Z,2.27
2017-10-12T09:53:31.368Z,2.13
2017-10-12T09:56:00.149Z,1.87
2017-10-12T09:58:27.813Z,2.73
2017-10-12T10:00:55.478Z,1.70
2017-10-12T10:03:24.606Z,2.37
2017-10-12T10:05:52.502Z,2.37
2017-10-12T10:08:21.371Z,2.83
2017-10-12T10:10:49.025Z,2.80
2017-10-12T10:13:16.809Z,3.23
2017-10-12T10:15:45.317Z,2.10
2017-10-12T10:18:12.941Z,2.27
2017-10-12T10:20:42.269Z,3.10
2017-10-12T10:25:44.081Z,3.00
2017-10-12T10:28:11.735Z,2.47
2017-10-12T10:30:39.371Z,2.37
2017-10-12T10:33:07.804Z,2.20
2017-10-12T10:35:35.746Z,2.07
2017-10-12T10:38:03.430Z,2.40
2017-10-12T10:40:31.185Z,2.10
2017-10-12T10:42:59.421Z,1.77
2017-10-12T10:45:27.081Z,1.73
2017-10-12T10:47:55.485Z,1.90
2017-10-12T10:50:23.167Z,1.97
2017-10-12T10:52:50.773Z,1.70
2017-10-12T10:55:18.494Z,2.40
2017-10-12T10:57:46.195Z,2.20
2017-10-12T11:00:13.856Z,2.23
2017-10-12T11:02:42.256Z,2.33
2017-10-12T11:05:10.117Z,1.70
2017-10-12T11:07:37.882Z,2.10
2017-10-12T11:10:06.248Z,2.33
2017-10-12T11:12:33.907Z,2.07
2017-10-12T11:15:01.517Z,2.90
2017-10-12T11:17:29.115Z,1.93
2017-10-12T11:22:30.669Z,3.57
2017-10-12T11:24:58.365Z,2.60
2017-10-12T11:27:25.963Z,2.20
2017-10-12T11:29:53.613Z,2.80
2017-10-12T11:32:23.210Z,1.80
2017-10-12T11:34:50.828Z,2.37
2017-10-12T11:37:18.555Z,2.40
2017-10-12T11:39:46.212Z,2.47
2017-10-12T11:42:13.866Z,2.50
2017-10-12T11:44:41.496Z,2.23
2017-10-12T11:47:09.348Z,2.10
2017-10-12T11:49:37.913Z,2.20
2017-10-12T11:52:05.543Z,1.97
2017-10-12T11:54:33.208Z,2.07
2017-10-12T11:57:00.861Z,2.10
2017-10-12T11:59:28.483Z,1.93
2017-10-12T12:04:47.936Z,2.30
2017-10-12T12:07:16.302Z,2.00
2017-10-12T12:09:44.081Z,2.60
2017-10-12T12:12:11.746Z,2.07
2017-10-12T12:14:39.367Z,2.63
2017-10-12T12:17:07.380Z,2.27
2017-10-12T12:19:35.224Z,2.43
2017-10-12T12:22:02.886Z,2.47
2017-10-12T12:24:30.738Z,2.00
2017-10-12T12:26:58.389Z,4.57
2017-10-12T12:29:26.270Z,2.13
2017-10-12T12:31:53.959Z,2.20
2017-10-12T12:34:23.626Z,3.80
2017-10-12T12:36:51.240Z,3.30
2017-10-12T12:39:18.965Z,3.40
2017-10-12T12:41:46.622Z,3.20
2017-10-12T12:44:14.229Z,3.60
2017-10-12T12:46:41.864Z,3.07
2017-10-12T12:49:09.615Z,3.87
2017-10-12T12:51:38.060Z,3.80
2017-10-12T12:54:05.827Z,4.47
2017-10-12T12:56:33.471Z,3.40
2017-10-12T12:59:01.113Z,4.30
2017-10-12T13:01:28.870Z,3.97
2017-10-12T13:03:57.319Z,3.37
2017-10-12T13:06:25.257Z,3.10
2017-10-12T13:08:52.967Z,3.67
2017-10-12T13:11:20.645Z,3.37
2017-10-12T13:13:48.291Z,4.70
2017-10-12T13:16:16.131Z,3.80
2017-10-12T13:18:43.777Z,3.57
2017-10-12T13:21:11.500Z,3.63
2017-10-12T13:23:39.108Z,3.40
2017-10-12T13:26:06.744Z,3.97
2017-10-12T13:28:34.405Z,3.27
2017-10-12T13:31:02.017Z,2.80
2017-10-12T13:33:30.521Z,3.77
2017-10-12T13:35:58.173Z,3.13
2017-10-12T13:38:25.797Z,3.10
2017-10-12T13:40:53.410Z,3.77
2017-10-12T13:43:21.049Z,3.80
2017-10-12T13:45:48.668Z,4.33
2017-10-12T13:48:16.484Z,3.30
2017-10-12T13:50:44.133Z,3.40
2017-10-12T13:53:12.157Z,3.67
2017-10-12T13:55:39.807Z,3.53
2017-10-12T13:58:07.409Z,3.80
2017-10-12T14:00:35.814Z,3.90
2017-10-12T14:03:03.687Z,4.40
2017-10-12T14:05:31.312Z,4.07
2017-10-12T14:07:58.966Z,4.33
2017-10-12T14:10:26.971Z,4.63
2017-10-12T14:12:54.657Z,4.63
2017-10-12T14:15:22.435Z,4.60
2017-10-12T14:17:50.822Z,3.70
2017-10-12T14:20:18.491Z,4.07
2017-10-12T14:22:46.150Z,3.90
2017-10-12T14:25:14.559Z,4.20
2017-10-12T14:27:44.818Z,4.20
2017-10-12T14:30:12.619Z,4.07
2017-10-12T14:32:40.242Z,4.97
2017-10-12T14:35:07.960Z,3.77
2017-10-12T14:37:35.571Z,4.53
2017-10-12T14:40:05.597Z,4.60
2017-10-12T14:42:33.288Z,4.07
2017-10-12T14:45:02.839Z,4.70
2017-10-12T14:47:30.511Z,4.30
2017-10-12T14:49:58.142Z,4.23
2017-10-12T14:52:25.853Z,3.90
2017-10-12T14:54:55.320Z,3.77
2017-10-12T14:57:23.418Z,4.20
2017-10-12T14:59:58.926Z,2.77
2017-10-12T15:02:26.575Z,3.60
2017-10-12T15:04:54.191Z,3.20
2017-10-12T15:07:21.851Z,2.90
2017-10-12T15:09:49.540Z,3.43
2017-10-12T15:12:17.173Z,3.47
2017-10-12T15:14:44.813Z,2.43
2017-10-12T15:17:13.007Z,3.90
2017-10-12T15:19:40.669Z,4.00
2017-10-12T15:22:08.310Z,2.67
2017-10-12T15:24:36.875Z,3.33
2017-10-12T15:27:05.630Z,3.00
2017-10-12T15:29:34.172Z,3.13
2017-10-12T15:32:02.114Z,3.40
2017-10-12T15:34:29.778Z,3.37
2017-10-12T15:36:57.431Z,4.10
2017-10-12T15:39:25.510Z,3.57
2017-10-12T15:41:53.384Z,3.13
2017-10-12T15:44:22.496Z,3.23
2017-10-12T15:46:50.180Z,3.67
2017-10-12T15:49:18.008Z,4.13
2017-10-12T15:51:45.636Z,4.03
2017-10-12T15:54:14.045Z,3.70
2017-10-12T15:56:41.698Z,3.30
2017-10-12T15:59:09.593Z,3.13
2017-10-12T16:01:37.465Z,3.73
2017-10-12T16:04:05.166Z,3.47
2017-10-12T16:06:32.770Z,3.60
2017-10-12T16:09:00.403Z,3.83
2017-10-12T16:11:28.704Z,5.37
2017-10-12T16:13:56.346Z,4.83
2017-10-12T16:16:23.962Z,4.13
2017-10-12T16:18:51.580Z,3.97
2017-10-12T16:21:33.737Z,3.80
2017-10-12T16:27:57.390Z,3.90
2017-10-12T16:36:52.916Z,4.53
2017-10-12T16:42:14.606Z,4.23
2017-10-12T16:44:45.973Z,4.50
2017-10-12T16:47:14.768Z,3.40
2017-10-12T16:50:13.572Z,3.80
2017-10-12T16:52:42.984Z,4.33
2017-10-12T16:55:12.965Z,3.80
2017-10-12T16:57:41.548Z,4.93
2017-10-12T17:00:09.169Z,4.03
2017-10-12T17:02:36.906Z,4.10
2017-10-12T17:05:04.633Z,4.17
2017-10-12T17:07:33.100Z,4.50
2017-10-12T17:10:00.848Z,3.90
2017-10-12T17:12:28.478Z,4.00
2017-10-12T17:14:56.330Z,4.70
2017-10-12T17:17:24.979Z,6.67
2017-10-12T17:19:52.665Z,5.83
2017-10-12T17:22:20.942Z,5.10
2017-10-12T17:24:48.626Z,4.47
2017-10-12T17:27:16.271Z,4.93
2017-10-12T17:29:43.883Z,4.90
2017-10-12T17:32:11.566Z,5.50
2017-10-12T17:34:39.995Z,4.63
2017-10-12T17:37:08.437Z,6.17
2017-10-12T17:39:36.095Z,6.13
2017-10-12T17:42:03.734Z,4.90
2017-10-12T17:44:31.366Z,5.17
2017-10-12T17:46:58.997Z,4.87
2017-10-12T17:49:26.679Z,5.10
2017-10-12T17:51:54.398Z,5.63
2017-10-12T17:54:37.016Z,6.00
2017-10-12T17:56:49.767Z,5.53
2017-10-12T17:59:17.557Z,6.07
2017-10-12T18:01:45.176Z,5.70
2017-10-12T18:06:41.810Z,5.33
2017-10-12T18:09:10.431Z,5.50
2017-10-12T18:11:40.117Z,5.50
2017-10-12T18:14:08.530Z,5.13
2017-10-12T18:16:36.169Z,8.20
2017-10-12T18:19:05.545Z,5.80
2017-10-12T18:21:33.292Z,5.80
2017-10-12T18:24:00.908Z,5.63
2017-10-12T18:29:02.457Z,5.83
2017-10-12T18:31:30.123Z,7.00
2017-10-12T18:33:57.791Z,6.37
2017-10-12T18:36:25.423Z,4.90
2017-10-12T18:38:55.450Z,5.90
2017-10-12T18:41:23.201Z,5.80
2017-10-12T18:43:50.925Z,5.83
2017-10-12T18:46:18.565Z,6.70
2017-10-12T18:48:46.202Z,5.30
2017-10-12T18:51:13.846Z,5.10
2017-10-12T18:53:41.462Z,5.83
2017-10-12T18:56:09.080Z,4.97
2017-10-12T18:58:37.493Z,5.53
2017-10-12T19:01:05.167Z,4.90
2017-10-12T19:03:32.801Z,5.20
2017-10-12T19:06:00.466Z,4.90
2017-10-12T19:08:28.172Z,5.23
2017-10-12T19:10:55.850Z,5.10
2017-10-12T19:13:23.610Z,4.70
2017-10-12T19:15:51.286Z,5.37
2017-10-12T19:18:19.000Z,5.03
2017-10-12T19:20:46.643Z,5.70
2017-10-12T19:23:14.335Z,5.87
2017-10-12T19:25:41.947Z,5.73
2017-10-12T19:30:37.385Z,5.57
2017-10-12T19:35:34.191Z,4.83
2017-10-12T19:38:01.861Z,4.20
2017-10-12T19:40:29.475Z,4.00
2017-10-12T19:42:57.828Z,4.73
2017-10-12T19:45:25.460Z,4.30
2017-10-12T19:47:53.111Z,4.30
2017-10-12T19:50:20.972Z,3.20
2017-10-12T19:52:48.632Z,5.00
2017-10-12T19:55:16.858Z,4.67
2017-10-12T19:57:44.477Z,4.00
2017-10-12T20:00:12.241Z,4.40
2017-10-12T20:02:40.630Z,4.13
2017-10-12T20:05:08.242Z,4.30
2017-10-12T20:07:35.949Z,4.57
2017-10-12T20:10:03.573Z,4.83
2017-10-12T20:12:31.942Z,4.83
2017-10-12T20:14:59.579Z,5.77
2017-10-12T20:17:27.953Z,4.63
2017-10-12T20:19:55.605Z,3.60
2017-10-12T20:22:23.729Z,4.57
2017-10-12T20:24:51.359Z,4.90
2017-10-12T20:27:18.983Z,4.03
2017-10-12T20:29:46.694Z,4.33
2017-10-12T20:32:14.315Z,3.20
2017-10-12T20:34:41.972Z,5.10
2017-10-12T20:37:10.468Z,4.20
2017-10-12T20:39:38.144Z,3.70
2017-10-12T20:44:33.459Z,3.73
2017-10-12T20:47:01.095Z,3.80
2017-10-12T20:51:56.295Z,4.27
2017-10-12T20:54:24.485Z,3.90
2017-10-12T20:56:52.246Z,3.57
2017-10-12T20:59:20.074Z,3.57
2017-10-12T21:01:47.736Z,3.83
2017-10-12T21:04:15.377Z,3.20
2017-10-12T21:06:43.028Z,2.87
2017-10-12T21:09:10.681Z,3.27
2017-10-12T21:11:38.312Z,2.90
2017-10-12T21:14:06.728Z,3.47
2017-10-12T21:16:34.347Z,3.30
2017-10-12T21:19:01.957Z,3.43
2017-10-12T21:21:29.599Z,3.57
2017-10-12T21:23:57.194Z,3.80
2017-10-12T21:26:24.996Z,3.87
2017-10-12T21:28:53.405Z,3.83
2017-10-12T21:31:21.049Z,3.50
2017-10-12T21:33:48.708Z,3.90
2017-10-12T21:36:17.138Z,3.30
2017-10-12T21:38:44.754Z,3.67
2017-10-12T21:41:13.159Z,3.20
2017-10-12T21:43:41.579Z,3.53
2017-10-12T21:46:09.286Z,3.37
2017-10-12T21:48:36.912Z,3.40
2017-10-12T21:51:04.600Z,3.00
2017-10-12T21:53:32.261Z,3.20
2017-10-12T21:56:00.635Z,3.63
2017-10-12T21:58:28.261Z,3.33
2017-10-12T22:00:55.893Z,2.93
2017-10-12T22:03:23.508Z,2.90
2017-10-12T22:05:51.550Z,3.13
2017-10-12T22:08:19.191Z,3.40
2017-10-12T22:10:46.797Z,3.50
2017-10-12T22:13:14.432Z,3.00
2017-10-12T22:15:42.025Z,2.67
2017-10-12T22:18:09.682Z,3.40
2017-10-12T22:20:37.336Z,3.20
2017-10-12T22:23:05.067Z,2.80
2017-10-12T22:25:32.702Z,4.17
2017-10-12T22:28:01.115Z,3.87
2017-10-12T22:30:28.745Z,4.27
2017-10-12T22:32:56.418Z,4.33
2017-10-12T22:35:24.093Z,3.50
2017-10-12T22:37:51.721Z,3.83
2017-10-12T22:40:19.359Z,3.10
2017-10-12T22:42:47.801Z,3.43
2017-10-12T22:45:15.465Z,4.00
2017-10-12T22:47:43.100Z,3.30
2017-10-12T22:50:12.493Z,4.60
2017-10-12T22:52:40.108Z,4.23
2017-10-12T22:55:08.011Z,3.93
2017-10-12T22:57:35.969Z,3.90
2017-10-12T23:00:03.971Z,4.53
2017-10-12T23:02:31.600Z,4.30
2017-10-12T23:04:59.266Z,4.10
2017-10-12T23:07:26.900Z,5.00
2017-10-12T23:09:54.544Z,5.30
2017-10-12T23:12:22.196Z,4.10
2017-10-12T23:14:49.806Z,4.77
2017-10-12T23:17:17.427Z,4.37
2017-10-12T23:19:45.100Z,4.47
2017-10-12T23:22:13.448Z,4.23
2017-10-12T23:24:41.934Z,5.00
2017-10-12T23:27:09.783Z,4.70
2017-10-12T23:29:37.423Z,4.27
2017-10-12T23:32:05.052Z,4.30
2017-10-12T23:34:32.952Z,5.27
2017-10-12T23:37:00.565Z,4.13
2017-10-12T23:39:28.178Z,4.30
2017-10-12T23:41:55.824Z,4.33
2017-10-12T23:44:23.472Z,4.83
2017-10-12T23:46:51.838Z,4.30
2017-10-12T23:49:19.484Z,5.10
2017-10-12T23:51:47.108Z,4.00
2017-10-12T23:54:14.711Z,3.97
2017-10-12T23:56:42.605Z,3.80
2017-10-12T23:59:10.283Z,4.90
